createdAt,value
2018-05-13T00:01:07.826Z,14.17
2018-05-13T00:04:11.080Z,14.25
2018-05-13T00:07:14.366Z,14.15
2018-05-13T00:10:17.624Z,14.13
2018-05-13T00:13:20.894Z,14.01
2018-05-13T00:16:24.219Z,13.99
2018-05-13T00:19:28.240Z,13.57
2018-05-13T00:22:31.511Z,12.60
2018-05-13T00:25:35.538Z,12.87
2018-05-13T00:28:39.561Z,12.95
2018-05-13T00:31:42.818Z,13.01
2018-05-13T00:34:46.077Z,13.04
2018-05-13T00:37:49.332Z,13.06
2018-05-13T00:40:53.354Z,13.13
2018-05-13T00:43:57.376Z,13.24
2018-05-13T00:47:01.658Z,13.20
2018-05-13T00:50:04.917Z,13.27
2018-05-13T00:53:08.237Z,13.06
2018-05-13T00:56:11.702Z,12.99
2018-05-13T00:59:14.958Z,13.04
2018-05-13T01:02:18.218Z,13.00
2018-05-13T01:05:21.482Z,12.95
2018-05-13T01:08:24.756Z,12.95
2018-05-13T01:11:28.874Z,12.88
2018-05-13T01:14:32.895Z,12.87
2018-05-13T01:17:36.933Z,12.82
2018-05-13T01:20:40.205Z,12.66
2018-05-13T01:23:44.241Z,12.69
2018-05-13T01:26:48.260Z,12.68
2018-05-13T01:29:51.536Z,12.59
2018-05-13T01:32:54.858Z,12.68
2018-05-13T01:35:58.119Z,12.59
2018-05-13T01:39:01.386Z,12.60
2018-05-13T01:42:04.754Z,12.51
2018-05-13T01:45:08.005Z,12.49
2018-05-13T01:48:11.292Z,12.44
2018-05-13T01:51:14.550Z,12.39
2018-05-13T01:54:17.808Z,12.42
2018-05-13T01:57:22.478Z,12.38
2018-05-13T02:00:25.753Z,12.44
2018-05-13T02:03:29.780Z,12.28
2018-05-13T02:06:33.037Z,12.30
2018-05-13T02:09:36.281Z,12.28
2018-05-13T02:12:41.201Z,12.22
2018-05-13T02:15:45.210Z,12.31
2018-05-13T02:18:48.490Z,12.27
2018-05-13T02:21:52.677Z,12.19
2018-05-13T02:24:55.943Z,12.16
2018-05-13T02:27:59.281Z,12.14
2018-05-13T02:31:02.544Z,12.09
2018-05-13T02:34:05.803Z,12.06
2018-05-13T02:37:09.053Z,12.11
2018-05-13T02:40:12.307Z,12.12
2018-05-13T02:43:16.327Z,12.07
2018-05-13T02:46:19.586Z,12.03
2018-05-13T02:49:22.845Z,12.03
2018-05-13T02:52:26.119Z,11.97
2018-05-13T02:55:29.386Z,12.00
2018-05-13T02:58:32.661Z,11.98
2018-05-13T03:01:35.943Z,11.81
2018-05-13T03:04:39.184Z,11.77
2018-05-13T03:07:43.215Z,11.84
2018-05-13T03:10:47.952Z,11.81
2018-05-13T03:13:51.209Z,11.71
2018-05-13T03:16:54.473Z,11.67
2018-05-13T03:19:57.717Z,11.62
2018-05-13T03:23:00.987Z,11.70
2018-05-13T03:26:04.313Z,11.77
2018-05-13T03:29:07.626Z,11.75
2018-05-13T03:32:11.659Z,11.78
2018-05-13T03:35:14.909Z,11.85
2018-05-13T03:38:18.178Z,11.85
2018-05-13T03:41:21.448Z,11.77
2018-05-13T03:44:24.691Z,11.81
2018-05-13T03:47:27.965Z,11.72
2018-05-13T03:50:31.225Z,11.50
2018-05-13T03:53:35.257Z,10.81
2018-05-13T03:56:38.516Z,11.09
2018-05-13T03:59:41.786Z,11.20
2018-05-13T04:02:45.049Z,11.22
2018-05-13T04:05:49.131Z,11.32
2018-05-13T04:09:10.206Z,11.33
2018-05-13T04:12:31.161Z,11.31
2018-05-13T04:15:34.409Z,11.38
2018-05-13T04:18:37.679Z,11.52
2018-05-13T04:21:41.027Z,11.59
2018-05-13T04:24:45.101Z,11.65
2018-05-13T04:27:49.129Z,11.83
2018-05-13T04:30:52.385Z,12.00
2018-05-13T04:33:57.186Z,12.12
2018-05-13T04:37:00.934Z,12.11
2018-05-13T04:40:04.198Z,12.36
2018-05-13T04:43:07.494Z,12.51
2018-05-13T04:46:10.753Z,12.53
2018-05-13T04:49:14.013Z,12.70
2018-05-13T04:52:18.037Z,12.90
2018-05-13T04:55:21.303Z,12.95
2018-05-13T04:58:24.600Z,13.21
2018-05-13T05:01:27.879Z,13.30
2018-05-13T05:04:31.935Z,13.42
2018-05-13T05:07:35.225Z,13.43
2018-05-13T05:10:38.469Z,13.67
2018-05-13T05:13:41.739Z,13.66
2018-05-13T05:16:44.994Z,13.83
2018-05-13T05:19:48.246Z,13.94
2018-05-13T05:22:51.589Z,14.07
2018-05-13T05:25:55.605Z,14.14
2018-05-13T05:28:59.730Z,14.29
2018-05-13T05:32:03.019Z,14.46
2018-05-13T05:35:07.066Z,14.48
2018-05-13T05:38:10.336Z,14.50
2018-05-13T05:41:14.453Z,14.58
2018-05-13T05:44:18.479Z,14.78
2018-05-13T05:47:21.758Z,15.05
2018-05-13T05:50:25.781Z,15.53
2018-05-13T05:53:29.115Z,16.32
2018-05-13T05:56:32.387Z,17.57
2018-05-13T05:59:35.701Z,19.09
2018-05-13T06:02:39.751Z,19.98
2018-05-13T06:05:43.028Z,19.15
2018-05-13T06:08:46.348Z,20.99
2018-05-13T06:11:49.630Z,20.51
2018-05-13T06:14:53.676Z,19.73
2018-05-13T06:17:57.034Z,21.44
2018-05-13T06:21:00.350Z,20.88
2018-05-13T06:24:03.679Z,20.96
2018-05-13T06:27:06.961Z,20.47
2018-05-13T06:30:10.218Z,22.42
2018-05-13T06:33:13.490Z,22.53
2018-05-13T06:36:16.906Z,19.78
2018-05-13T06:39:20.213Z,19.81
2018-05-13T06:42:23.481Z,20.96
2018-05-13T06:45:26.750Z,20.30
2018-05-13T06:48:30.781Z,21.13
2018-05-13T06:51:34.163Z,20.05
2018-05-13T06:54:37.310Z,20.61
2018-05-13T07:01:11.424Z,20.53
2018-05-13T07:04:15.455Z,19.30
2018-05-13T07:07:20.197Z,18.93
2018-05-13T07:10:23.509Z,19.48
2018-05-13T07:13:26.757Z,19.97
2018-05-13T07:16:30.090Z,20.73
2018-05-13T07:19:33.295Z,21.38
2018-05-13T07:22:37.339Z,20.47
2018-05-13T07:25:40.592Z,20.67
2018-05-13T07:28:43.850Z,21.51
2018-05-13T07:31:47.164Z,22.16
2018-05-13T07:34:50.649Z,19.66
2018-05-13T07:37:53.948Z,19.22
2018-05-13T07:40:57.266Z,20.79
2018-05-13T07:44:00.583Z,20.76
2018-05-13T07:47:03.857Z,21.12
2018-05-13T07:50:07.884Z,19.62
2018-05-13T07:53:11.548Z,20.49
2018-05-13T07:56:14.867Z,21.35
2018-05-13T07:59:18.883Z,21.04
2018-05-13T08:02:22.137Z,20.32
2018-05-13T08:05:25.406Z,20.40
2018-05-13T08:08:28.722Z,20.06
2018-05-13T08:11:32.009Z,19.56
2018-05-13T08:14:36.049Z,20.27
2018-05-13T08:17:39.369Z,20.41
2018-05-13T08:20:42.739Z,21.64
2018-05-13T08:23:46.818Z,22.39
2018-05-13T08:26:50.077Z,21.91
2018-05-13T08:29:53.411Z,22.04
2018-05-13T08:32:56.675Z,21.42
2018-05-13T08:35:59.962Z,21.83
2018-05-13T08:39:04.419Z,21.18
2018-05-13T08:42:07.686Z,20.80
2018-05-13T08:45:11.088Z,21.22
2018-05-13T08:48:14.540Z,22.28
2018-05-13T08:51:17.802Z,21.51
2018-05-13T08:54:21.870Z,21.27
2018-05-13T08:57:25.169Z,21.22
2018-05-13T09:00:28.425Z,21.82
2018-05-13T09:03:32.133Z,20.90
2018-05-13T09:06:36.186Z,20.93
2018-05-13T09:09:39.440Z,21.56
2018-05-13T09:12:42.733Z,21.53
2018-05-13T09:15:47.258Z,21.27
2018-05-13T09:18:50.724Z,21.92
2018-05-13T09:21:54.053Z,21.90
2018-05-13T09:24:57.348Z,22.77
2018-05-13T09:28:00.599Z,22.35
2018-05-13T09:31:03.861Z,21.83
2018-05-13T09:34:07.174Z,21.88
2018-05-13T09:37:10.446Z,22.72
2018-05-13T09:40:13.752Z,22.53
2018-05-13T09:43:17.073Z,22.46
2018-05-13T09:46:20.343Z,23.19
2018-05-13T09:49:23.668Z,23.31
2018-05-13T09:52:28.371Z,23.23
2018-05-13T09:55:32.428Z,22.06
2018-05-13T09:58:35.688Z,22.69
2018-05-13T10:01:50.702Z,22.76
2018-05-13T10:04:55.039Z,23.13
2018-05-13T10:07:58.361Z,23.22
2018-05-13T10:11:01.621Z,22.88
2018-05-13T10:14:04.931Z,22.24
2018-05-13T10:17:08.210Z,22.61
2018-05-13T10:20:12.375Z,23.17
2018-05-13T10:23:15.948Z,23.66
2018-05-13T10:26:19.253Z,24.04
2018-05-13T10:29:22.554Z,23.14
2018-05-13T10:32:25.825Z,22.83
2018-05-13T10:35:29.095Z,22.97
2018-05-13T10:38:32.373Z,23.30
2018-05-13T10:41:35.664Z,23.11
2018-05-13T10:44:39.683Z,23.75
2018-05-13T10:47:43.868Z,24.13
2018-05-13T10:50:48.096Z,23.94
2018-05-13T10:53:51.359Z,23.59
2018-05-13T10:56:54.644Z,23.89
2018-05-13T10:59:58.147Z,24.04
2018-05-13T11:03:01.397Z,24.99
2018-05-13T11:06:04.660Z,24.38
2018-05-13T11:09:07.950Z,24.29
2018-05-13T11:12:11.215Z,24.82
2018-05-13T11:15:14.468Z,24.51
2018-05-13T11:18:18.553Z,24.35
2018-05-13T11:21:21.821Z,23.64
2018-05-13T11:24:25.082Z,23.91
2018-05-13T11:27:29.097Z,23.91
2018-05-13T11:30:33.122Z,24.21
2018-05-13T11:33:37.166Z,24.62
2018-05-13T11:36:40.433Z,23.79
2018-05-13T11:39:44.457Z,24.42
2018-05-13T11:42:48.581Z,24.67
2018-05-13T11:45:52.618Z,24.16
2018-05-13T11:48:56.641Z,24.21
2018-05-13T11:52:00.671Z,24.44
2018-05-13T11:55:04.702Z,24.96
2018-05-13T11:58:07.955Z,25.15
2018-05-13T12:01:11.220Z,24.75
2018-05-13T12:04:14.478Z,24.98
2018-05-13T12:07:17.767Z,25.24
2018-05-13T12:10:21.022Z,25.26
2018-05-13T12:13:26.226Z,24.76
2018-05-13T12:16:29.766Z,24.40
2018-05-13T12:19:33.784Z,24.37
2018-05-13T12:22:37.056Z,24.71
2018-05-13T12:25:40.301Z,24.71
2018-05-13T12:28:44.317Z,24.85
2018-05-13T12:31:47.586Z,24.76
2018-05-13T12:34:51.663Z,24.85
2018-05-13T12:37:55.693Z,24.56
2018-05-13T12:40:59.725Z,24.42
2018-05-13T12:44:02.988Z,24.85
2018-05-13T12:47:06.259Z,25.26
2018-05-13T12:50:09.601Z,25.14
2018-05-13T12:53:13.545Z,25.00
2018-05-13T12:56:17.755Z,24.88
2018-05-13T12:59:22.491Z,24.66
2018-05-13T13:02:25.848Z,24.68
2018-05-13T13:05:29.127Z,24.34
2018-05-13T13:08:32.419Z,24.56
2018-05-13T13:11:35.679Z,24.78
2018-05-13T13:14:38.965Z,24.57
2018-05-13T13:17:42.237Z,24.48
2018-05-13T13:20:45.495Z,24.26
2018-05-13T13:23:49.242Z,24.70
2018-05-13T13:26:52.549Z,24.86
2018-05-13T13:29:55.845Z,25.39
2018-05-13T13:32:59.942Z,25.35
2018-05-13T13:36:03.218Z,25.09
2018-05-13T13:39:06.560Z,24.68
2018-05-13T13:42:09.845Z,24.53
2018-05-13T13:45:14.127Z,24.42
2018-05-13T13:48:17.388Z,24.45
2018-05-13T13:51:20.654Z,24.59
2018-05-13T13:54:24.726Z,24.40
2018-05-13T13:57:28.005Z,24.09
2018-05-13T14:00:31.475Z,24.27
2018-05-13T14:03:35.505Z,24.40
2018-05-13T14:06:38.764Z,24.29
2018-05-13T14:09:42.058Z,24.75
2018-05-13T14:12:45.378Z,24.81
2018-05-13T14:15:48.629Z,24.59
2018-05-13T14:18:52.012Z,24.48
2018-05-13T14:21:55.293Z,24.36
2018-05-13T14:24:58.640Z,24.26
2018-05-13T14:28:03.007Z,24.46
2018-05-13T14:31:06.258Z,24.60
2018-05-13T14:34:09.517Z,24.59
2018-05-13T14:37:12.830Z,24.68
2018-05-13T14:40:16.195Z,24.65
2018-05-13T14:43:19.594Z,24.82
2018-05-13T14:46:23.055Z,24.75
2018-05-13T14:49:26.322Z,24.55
2018-05-13T14:52:29.582Z,24.37
2018-05-13T14:55:33.626Z,24.34
2018-05-13T14:58:36.890Z,24.51
2018-05-13T15:01:40.202Z,24.45
2018-05-13T15:04:44.497Z,24.39
2018-05-13T15:07:49.078Z,24.46
2018-05-13T15:10:53.150Z,24.42
2018-05-13T15:13:56.412Z,24.55
2018-05-13T15:16:59.670Z,24.34
2018-05-13T15:20:03.032Z,23.57
2018-05-13T15:23:07.830Z,22.95
2018-05-13T15:26:11.876Z,22.45
2018-05-13T15:29:15.127Z,22.13
2018-05-13T15:32:19.138Z,21.86
2018-05-13T15:35:22.733Z,21.67
2018-05-13T15:38:26.029Z,21.56
2018-05-13T15:41:29.289Z,21.50
2018-05-13T15:44:33.512Z,20.78
2018-05-13T15:47:36.769Z,20.70
2018-05-13T15:50:40.018Z,20.04
2018-05-13T15:53:43.297Z,20.38
2018-05-13T15:56:46.550Z,19.66
2018-05-13T15:59:49.857Z,19.24
2018-05-13T16:02:53.131Z,19.35
2018-05-13T16:05:56.379Z,19.36
2018-05-13T16:09:01.488Z,19.40
2018-05-13T16:12:04.825Z,19.21
2018-05-13T16:15:08.027Z,18.91
2018-05-13T16:18:13.215Z,18.87
2018-05-13T16:21:16.457Z,19.18
2018-05-13T16:24:19.719Z,19.45
2018-05-13T16:27:23.897Z,19.82
2018-05-13T16:30:28.132Z,20.00
2018-05-13T16:33:32.920Z,20.22
2018-05-13T16:36:36.182Z,20.42
2018-05-13T16:39:40.233Z,20.14
2018-05-13T16:42:43.544Z,20.10
2018-05-13T16:45:47.310Z,20.78
2018-05-13T16:48:51.330Z,23.06
2018-05-13T16:51:54.628Z,25.10
2018-05-13T16:54:58.139Z,25.50
2018-05-13T16:58:01.444Z,24.50
2018-05-13T17:01:05.464Z,25.36
2018-05-13T17:04:08.767Z,26.47
2018-05-13T17:07:12.067Z,28.85
2018-05-13T17:10:15.338Z,27.62
2018-05-13T17:13:18.745Z,25.33
2018-05-13T17:16:22.125Z,24.93
2018-05-13T17:19:25.433Z,23.41
2018-05-13T17:22:28.735Z,23.10
2018-05-13T17:25:32.071Z,21.38
2018-05-13T17:28:36.442Z,21.66
2018-05-13T17:31:39.697Z,22.21
2018-05-13T17:34:42.963Z,21.73
2018-05-13T17:37:47.987Z,21.02
2018-05-13T17:40:51.279Z,19.96
2018-05-13T17:43:55.319Z,18.63
2018-05-13T17:46:58.633Z,17.68
2018-05-13T17:50:02.286Z,17.09
2018-05-13T17:53:06.341Z,16.88
2018-05-13T17:56:09.641Z,16.68
2018-05-13T17:59:12.885Z,16.61
2018-05-13T18:02:16.179Z,16.77
2018-05-13T18:05:19.445Z,16.82
2018-05-13T18:08:22.707Z,16.89
2018-05-13T18:11:26.994Z,16.84
2018-05-13T18:14:30.269Z,16.92
2018-05-13T18:17:33.550Z,16.79
2018-05-13T18:20:37.566Z,16.80
2018-05-13T18:23:41.588Z,16.78
2018-05-13T18:26:45.644Z,16.78
2018-05-13T18:29:49.008Z,16.82
2018-05-13T18:32:52.325Z,16.77
2018-05-13T18:35:55.621Z,16.40
2018-05-13T18:38:59.692Z,15.91
2018-05-13T18:42:03.689Z,16.10
2018-05-13T18:45:07.715Z,16.06
2018-05-13T18:48:10.990Z,15.88
2018-05-13T18:51:15.033Z,16.10
2018-05-13T18:54:18.328Z,16.01
2018-05-13T18:57:21.601Z,15.61
2018-05-13T19:00:24.866Z,15.67
2018-05-13T19:03:28.224Z,15.72
2018-05-13T19:06:32.263Z,15.46
2018-05-13T19:09:35.629Z,15.37
2018-05-13T19:12:39.051Z,15.47
2018-05-13T19:15:43.080Z,15.64
2018-05-13T19:18:46.391Z,15.78
2018-05-13T19:21:50.402Z,15.91
2018-05-13T19:24:53.674Z,15.74
2018-05-13T19:27:56.927Z,15.78
2018-05-13T19:31:00.313Z,15.79
2018-05-13T19:34:04.312Z,15.87
2018-05-13T19:37:07.653Z,15.86
2018-05-13T19:40:12.065Z,15.92
2018-05-13T19:43:15.811Z,15.82
2018-05-13T19:46:19.267Z,15.77
2018-05-13T19:49:25.681Z,15.81
2018-05-13T19:52:29.060Z,15.81
2018-05-13T19:55:32.340Z,15.78
2018-05-13T19:58:36.567Z,15.67
2018-05-13T20:01:44.018Z,15.76
2018-05-13T20:04:48.191Z,15.68
2018-05-13T20:07:51.477Z,15.64
2018-05-13T20:10:54.779Z,15.68
2018-05-13T20:13:59.312Z,15.58
2018-05-13T20:17:03.384Z,15.63
2018-05-13T20:20:07.516Z,15.65
2018-05-13T20:23:26.780Z,15.76
2018-05-13T20:26:30.039Z,15.84
2018-05-13T20:29:34.090Z,15.88
2018-05-13T20:32:37.364Z,16.01
2018-05-13T20:35:40.616Z,16.09
2018-05-13T20:38:44.068Z,16.03
2018-05-13T20:41:48.089Z,16.12
2018-05-13T20:44:52.155Z,16.05
2018-05-13T20:47:55.410Z,16.03
2018-05-13T20:50:59.446Z,16.01
2018-05-13T20:54:02.834Z,15.88
2018-05-13T20:57:06.086Z,15.85
2018-05-13T21:00:09.391Z,15.87
2018-05-13T21:03:12.645Z,15.78
2018-05-13T21:06:15.910Z,15.60
2018-05-13T21:09:19.982Z,15.76
2018-05-13T21:12:23.354Z,15.69
2018-05-13T21:15:26.622Z,15.67
2018-05-13T21:18:29.875Z,15.82
2018-05-13T21:21:33.156Z,15.77
2018-05-13T21:24:36.687Z,15.67
2018-05-13T21:27:39.933Z,15.76
2018-05-13T21:30:43.186Z,15.64
2018-05-13T21:33:46.809Z,15.65
2018-05-13T21:36:50.077Z,15.60
2018-05-13T21:39:54.133Z,15.71
2018-05-13T21:42:57.393Z,15.68
2018-05-13T21:46:01.506Z,15.74
2018-05-13T21:49:05.531Z,15.77
2018-05-13T21:52:09.607Z,15.75
2018-05-13T21:55:12.877Z,15.77
2018-05-13T21:58:16.153Z,15.75
2018-05-13T22:01:19.461Z,15.71
2018-05-13T22:04:22.783Z,15.60
2018-05-13T22:07:26.038Z,15.46
2018-05-13T22:10:29.354Z,15.60
2018-05-13T22:13:33.373Z,15.57
2018-05-13T22:16:37.394Z,15.55
2018-05-13T22:19:41.416Z,15.37
2018-05-13T22:22:45.434Z,15.26
2018-05-13T22:25:48.737Z,15.30
2018-05-13T22:28:51.953Z,15.22
2018-05-13T22:31:55.441Z,15.16
2018-05-13T22:34:59.498Z,15.04
2018-05-13T22:38:02.754Z,15.02
2018-05-13T22:41:06.816Z,14.99
2018-05-13T22:44:10.171Z,14.94
2018-05-13T22:47:14.299Z,14.82
2018-05-13T22:50:18.349Z,14.85
2018-05-13T22:53:22.334Z,14.83
2018-05-13T22:56:25.622Z,14.79
2018-05-13T22:59:29.656Z,14.80
2018-05-13T23:02:33.017Z,14.76
2018-05-13T23:05:36.306Z,14.68
2018-05-13T23:08:39.567Z,14.66
2018-05-13T23:11:42.849Z,14.27
2018-05-13T23:14:46.145Z,13.99
2018-05-13T23:17:50.169Z,13.75
2018-05-13T23:20:53.433Z,13.92
2018-05-13T23:23:56.692Z,14.03
2018-05-13T23:27:00.121Z,14.07
2018-05-13T23:30:03.499Z,14.05
2018-05-13T23:33:06.969Z,14.01
2018-05-13T23:36:11.000Z,14.04
2018-05-13T23:39:14.288Z,14.08
2018-05-13T23:42:17.529Z,14.13
2018-05-13T23:45:20.782Z,14.15
2018-05-13T23:48:24.843Z,14.11
2018-05-13T23:51:28.191Z,14.15
2018-05-13T23:54:31.385Z,14.15
2018-05-13T23:57:35.410Z,14.11
